Time;durP1;ratioP1;P1;durP2;ratioP2;P2;SDS_P1;SDS_P2;PMS_P1;PMS_P2;Temp;Humidity;BMP_temperature;BMP_pressure;BME280_temperature;BME280_humidity;BME280_pressure;Samples;Min_cycle;Max_cycle;Signal;HPM_P1;HPM_P2
2023/09/21 00:01:45;;;;;;;60.23;4.50;;;;;;;23.91;52.85;98717.03;7310325;19;129259;-35
2023/09/21 00:04:10;;;;;;;139.83;8.97;;;;;;;23.90;52.94;98715.41;7309877;19;129275;-36
2023/09/21 00:06:36;;;;;;;75.80;5.23;;;;;;;23.92;52.70;98710.78;7312044;19;129499;-36
2023/09/21 00:09:03;;;;;;;103.80;7.20;;;;;;;23.91;52.97;98709.16;7309332;19;131069;-35
2023/09/21 00:11:30;;;;;;;92.40;6.50;;;;;;;23.90;53.25;98704.91;7309351;19;129875;-37
2023/09/21 00:13:56;;;;;;;72.32;5.25;;;;;;;23.87;53.15;98694.75;7310622;19;129215;-36
2023/09/21 00:16:25;;;;;;;78.00;5.70;;;;;;;23.81;53.00;98684.97;7309262;19;130220;-37
2023/09/21 00:18:50;;;;;;;90.43;6.05;;;;;;;23.95;52.86;98699.94;7311040;19;129559;-38
2023/09/21 00:21:16;;;;;;;54.47;4.33;;;;;;;23.92;53.04;98696.84;7310316;19;129592;-37
2023/09/21 00:23:43;;;;;;;76.97;5.20;;;;;;;23.93;53.14;98694.03;7312563;19;128952;-37
2023/09/21 00:26:09;;;;;;;83.38;5.60;;;;;;;23.80;53.11;98678.06;7310366;19;129414;-36
2023/09/21 00:28:35;;;;;;;104.55;6.90;;;;;;;23.92;53.35;98687.16;7309024;19;130428;-35
2023/09/21 00:31:02;;;;;;;99.10;6.53;;;;;;;23.90;52.88;98693.59;7307996;19;130703;-36
2023/09/21 00:33:29;;;;;;;68.32;5.07;;;;;;;23.91;52.97;98693.41;7310622;19;129037;-35
2023/09/21 00:35:58;;;;;;;123.28;7.50;;;;;;;23.77;52.47;98667.91;7308532;19;129192;-35
2023/09/21 00:38:24;;;;;;;85.18;5.95;;;;;;;23.91;52.97;98684.72;7308094;19;129551;-35
2023/09/21 00:40:50;;;;;;;118.10;8.05;;;;;;;23.89;52.33;98678.81;7308073;19;129638;-36
2023/09/21 00:43:24;;;;;;;112.80;7.67;;;;;;;23.90;53.70;98678.63;7308571;19;130057;-38
2023/09/21 00:45:52;;;;;;;56.92;4.28;;;;;;;23.90;53.37;98678.63;7310871;19;130048;-36
2023/09/21 00:48:23;;;;;;;66.70;4.80;;;;;;;23.87;52.61;98670.28;7309255;19;130432;-36
2023/09/21 00:50:51;;;;;;;61.22;4.38;;;;;;;23.91;52.97;98671.59;7308791;19;129823;-35
2023/09/21 00:53:17;;;;;;;82.45;5.95;;;;;;;23.89;52.95;98665.69;7308803;19;129234;-36
2023/09/21 00:55:50;;;;;;;82.90;5.95;;;;;;;23.88;53.41;98664.88;7310865;19;129353;-36
2023/09/21 00:58:16;;;;;;;133.57;8.68;;;;;;;23.84;53.07;98663.59;7305821;19;129335;-38
2023/09/21 01:00:43;;;;;;;84.05;5.70;;;;;;;23.86;52.99;98661.63;7304981;19;129194;-37
2023/09/21 01:03:12;;;;;;;92.82;6.15;;;;;;;23.82;52.09;98657.72;7305485;19;129892;-36
2023/09/21 01:05:39;;;;;;;55.90;4.35;;;;;;;23.79;52.71;98659.88;7308162;19;129639;-36
2023/09/21 01:08:09;;;;;;;76.68;5.28;;;;;;;23.76;53.04;98658.44;7308370;19;130374;-36
2023/09/21 01:10:44;;;;;;;94.85;6.90;;;;;;;23.77;52.85;98656.59;7304633;19;130224;-36
2023/09/21 01:13:12;;;;;;;43.47;3.72;;;;;;;23.73;52.60;98650.09;7305370;19;129070;-38
2023/09/21 01:15:38;;;;;;;49.00;4.07;;;;;;;23.72;52.59;98643.19;7309817;19;131304;-36
2023/09/21 01:18:04;;;;;;;91.67;5.93;;;;;;;23.71;52.79;98642.38;7306183;19;129411;-36
2023/09/21 01:20:32;;;;;;;82.45;5.38;;;;;;;23.74;52.84;98635.97;7307820;19;129215;-36
2023/09/21 01:23:12;;;;;;;84.22;5.68;;;;;;;23.75;54.14;98638.41;7309241;19;129232;-34
2023/09/21 01:25:40;;;;;;;85.13;5.85;;;;;;;23.80;53.20;98636.06;7308570;19;129568;-36
2023/09/21 01:28:11;;;;;;;53.85;4.10;;;;;;;23.82;52.41;98635.88;7308547;19;129714;-35
2023/09/21 01:30:37;;;;;;;104.45;6.70;;;;;;;23.80;52.09;98636.06;7307431;19;129186;-38
2023/09/21 01:33:08;;;;;;;79.47;5.38;;;;;;;23.83;52.62;98630.44;7307837;19;129735;-36
2023/09/21 01:35:34;;;;;;;80.55;5.50;;;;;;;23.83;52.72;98630.44;7306868;19;130883;-36
2023/09/21 01:37:59;;;;;;;82.00;5.70;;;;;;;23.82;52.42;98634.09;7307629;19;129144;-36
2023/09/21 01:40:25;;;;;;;44.10;3.40;;;;;;;23.82;52.88;98628.84;7307248;19;129092;-36
2023/09/21 01:42:50;;;;;;;81.20;5.60;;;;;;;23.84;52.07;98631.28;7307313;19;129743;-38
2023/09/21 01:45:16;;;;;;;83.47;5.93;;;;;;;23.83;52.36;98617.34;7308404;19;129476;-37
2023/09/21 01:47:43;;;;;;;97.30;6.57;;;;;;;23.83;51.88;98630.44;7307433;19;129679;-39
2023/09/21 01:50:11;;;;;;;101.65;6.32;;;;;;;23.73;51.97;98614.16;7307514;19;129839;-36
2023/09/21 01:52:40;;;;;;;111.28;7.47;;;;;;;23.82;52.38;98622.75;7305679;19;129455;-37
2023/09/21 01:55:10;;;;;;;83.45;5.50;;;;;;;23.79;52.52;98613.44;7305059;19;129159;-35
2023/09/21 01:57:39;;;;;;;95.05;6.70;;;;;;;23.83;52.96;98619.16;7308915;19;130318;-36
2023/09/21 02:00:12;;;;;;;84.10;5.65;;;;;;;23.83;52.39;98617.34;7305396;19;129825;-36
2023/09/21 02:02:39;;;;;;;107.43;7.18;;;;;;;23.84;52.32;98610.28;7306878;19;129046;-37
2023/09/21 02:05:08;;;;;;;79.63;5.03;;;;;;;23.80;52.91;98603.78;7302754;19;130709;-37
2023/09/21 02:07:33;;;;;;;97.15;6.95;;;;;;;23.79;52.83;98602.13;7305986;19;130432;-37
2023/09/21 02:09:59;;;;;;;96.00;6.50;;;;;;;23.82;52.77;98597.34;7305376;19;129084;-37
2023/09/21 02:12:25;;;;;;;96.00;6.23;;;;;;;23.73;52.13;98577.41;7303553;19;129262;-38
2023/09/21 02:14:50;;;;;;;115.60;7.33;;;;;;;23.80;52.40;98594.06;7303359;19;129316;-36
2023/09/21 02:17:17;;;;;;;64.73;4.97;;;;;;;23.81;52.35;98592.25;7304307;19;129175;-37
2023/09/21 02:19:42;;;;;;;;;;;;;;;23.81;54.08;98595.72;7307245;19;129184;-35
2023/09/21 02:22:08;;;;;;;46.92;3.63;;;;;;;23.75;52.19;98585.91;7302381;19;130110;-37
2023/09/21 02:24:35;;;;;;;79.67;5.40;;;;;;;23.80;52.62;98591.44;7305648;19;129169;-38
2023/09/21 02:27:00;;;;;;;75.95;4.85;;;;;;;23.81;52.43;98593.09;7307310;19;129764;-34
2023/09/21 02:29:26;;;;;;;54.28;4.28;;;;;;;23.80;52.65;98591.44;7307651;19;129701;-38
2023/09/21 02:31:52;;;;;;;114.10;7.53;;;;;;;23.78;52.52;98590.81;7304309;19;129276;-36
2023/09/21 02:34:18;;;;;;;67.83;4.93;;;;;;;23.79;51.94;98581.94;7304584;19;131324;-37
2023/09/21 02:36:45;;;;;;;100.33;7.27;;;;;;;23.76;51.86;98577.06;7306262;19;129514;-36
2023/09/21 02:39:11;;;;;;;76.97;5.07;;;;;;;23.77;52.29;98572.59;7304239;19;130330;-36
2023/09/21 02:41:36;;;;;;;84.60;5.37;;;;;;;23.75;52.02;98564.91;7303387;19;129846;-36
2023/09/21 02:44:03;;;;;;;83.97;5.67;;;;;;;23.67;51.91;98554.50;7305319;19;129547;-36
2023/09/21 02:46:29;;;;;;;52.17;3.97;;;;;;;23.75;52.35;98564.91;7305187;19;130510;-35
2023/09/21 02:48:54;;;;;;;78.23;5.50;;;;;;;23.79;52.15;98576.69;7307092;19;129637;-36
2023/09/21 02:51:20;;;;;;;60.87;4.83;;;;;;;23.78;52.40;98569.00;7303155;19;129361;-36
2023/09/21 02:53:46;;;;;;;89.40;6.38;;;;;;;23.75;52.11;98561.50;7307006;19;130152;-36
2023/09/21 02:56:12;;;;;;;94.85;6.15;;;;;;;23.69;52.73;98554.31;7305123;19;132363;-36
2023/09/21 02:58:38;;;;;;;64.20;4.90;;;;;;;23.78;52.67;98569.84;7304384;19;129457;-36
2023/09/21 03:01:04;;;;;;;96.22;6.47;;;;;;;23.77;52.40;98568.19;7306523;19;129630;-35
2023/09/21 03:03:30;;;;;;;53.85;4.20;;;;;;;23.77;52.35;98572.59;7307542;19;129431;-36
2023/09/21 03:05:55;;;;;;;71.70;5.30;;;;;;;23.76;52.47;98565.75;7306343;19;130347;-37
2023/09/21 03:08:22;;;;;;;108.97;7.10;;;;;;;23.76;52.55;98571.81;7302498;19;129120;-36
2023/09/21 03:10:53;;;;;;;89.03;6.30;;;;;;;23.75;52.92;98562.28;7305078;19;129326;-35
2023/09/21 03:13:19;;;;;;;119.60;7.97;;;;;;;23.65;52.68;98545.97;7303353;19;131124;-36
2023/09/21 03:15:58;;;;;;;112.63;7.57;;;;;;;23.77;53.32;98567.34;7304143;19;131397;-37
2023/09/21 03:18:25;;;;;;;111.75;6.97;;;;;;;23.77;52.00;98560.31;7306329;19;129186;-36
2023/09/21 03:20:54;;;;;;;97.85;6.60;;;;;;;23.75;51.58;98559.66;7302900;19;128882;-36
2023/09/21 03:23:21;;;;;;;88.78;6.28;;;;;;;23.74;52.05;98551.97;7305258;19;129348;-35
2023/09/21 03:25:47;;;;;;;94.03;6.45;;;;;;;23.72;51.99;98549.53;7303263;19;129951;-36
2023/09/21 03:28:15;;;;;;;62.47;4.13;;;;;;;23.76;52.52;98545.56;7306882;19;129372;-36
2023/09/21 03:30:42;;;;;;;94.50;6.25;;;;;;;23.75;51.87;98543.91;7302506;19;129124;-35
2023/09/21 03:33:07;;;;;;;75.80;5.30;;;;;;;23.77;51.69;98544.56;7302989;19;130587;-36
2023/09/21 03:35:33;;;;;;;64.30;4.60;;;;;;;23.73;52.25;98545.94;7305923;19;131189;-35
2023/09/21 03:37:59;;;;;;;74.30;5.07;;;;;;;23.74;51.87;98542.28;7304159;19;130051;-36
2023/09/21 03:40:25;;;;;;;72.17;5.13;;;;;;;23.74;52.40;98547.53;7304160;19;129334;-35
2023/09/21 03:42:52;;;;;;;87.47;6.10;;;;;;;23.73;52.41;98543.31;7303391;19;129364;-36
2023/09/21 03:45:20;;;;;;;67.25;4.85;;;;;;;23.74;52.06;98536.22;7301156;19;130487;-35
2023/09/21 03:47:46;;;;;;;75.47;5.55;;;;;;;23.75;51.87;98538.66;7304702;19;129457;-35
2023/09/21 03:50:12;;;;;;;98.95;7.07;;;;;;;23.73;52.09;98538.06;7298236;19;131024;-38
2023/09/21 03:52:44;;;;;;;84.67;5.53;;;;;;;23.59;52.99;98512.59;7302121;19;130087;-37
2023/09/21 03:55:15;;;;;;;79.40;5.47;;;;;;;23.72;52.48;98541.66;7303242;19;129191;-35
2023/09/21 03:57:42;;;;;;;117.25;8.10;;;;;;;23.69;52.63;98531.53;7300934;19;129149;-35
2023/09/21 04:00:19;;;;;;;;;;;;;;;23.72;53.93;98532.97;7301536;19;129551;-36
2023/09/21 04:02:45;;;;;;;81.57;6.05;;;;;;;23.73;52.76;98530.19;7304584;19;130263;-36
2023/09/21 04:05:18;;;;;;;85.50;5.72;;;;;;;23.75;52.48;98528.16;7297809;19;130516;-35
2023/09/21 04:07:48;;;;;;;96.50;6.65;;;;;;;23.75;52.69;98528.16;7303989;19;129430;-37
2023/09/21 04:10:15;;;;;;;88.38;6.20;;;;;;;23.74;51.97;98526.56;7300552;19;129169;-36
2023/09/21 04:12:41;;;;;;;71.53;5.40;;;;;;;23.75;52.66;98525.53;7303691;19;129288;-38
2023/09/21 04:15:08;;;;;;;147.03;9.33;;;;;;;23.73;52.62;98524.94;7303441;19;129199;-38
2023/09/21 04:17:35;;;;;;;69.70;4.93;;;;;;;23.70;52.57;98513.97;7305009;19;130168;-35
2023/09/21 04:20:00;;;;;;;80.57;5.72;;;;;;;23.59;52.06;98494.22;7300197;19;129749;-38
2023/09/21 04:22:26;;;;;;;81.73;5.77;;;;;;;23.73;52.95;98521.47;7294699;19;129754;-36
2023/09/21 04:24:51;;;;;;;95.57;6.63;;;;;;;23.68;51.95;98506.28;7302400;19;130080;-35
2023/09/21 04:27:17;;;;;;;96.60;6.93;;;;;;;23.72;52.30;98518.03;7297327;19;129490;-36
2023/09/21 04:29:43;;;;;;;116.40;8.10;;;;;;;23.73;52.25;98509.19;7302897;19;129914;-35
2023/09/21 04:32:09;;;;;;;82.57;5.72;;;;;;;23.73;52.36;98509.19;7299104;19;131744;-35
2023/09/21 04:34:36;;;;;;;55.75;4.40;;;;;;;23.73;52.54;98503.09;7302660;19;130856;-38
2023/09/21 04:37:02;;;;;;;76.75;5.35;;;;;;;23.70;52.25;98511.34;7297290;19;128802;-36
2023/09/21 04:39:27;;;;;;;95.60;5.90;;;;;;;23.70;52.49;98509.50;7310139;19;128845;-36
2023/09/21 04:41:53;;;;;;;153.13;9.37;;;;;;;23.68;52.08;98514.16;7300158;19;130249;-38
2023/09/21 04:44:18;;;;;;;75.33;5.17;;;;;;;23.64;52.17;98502.38;7307651;19;128882;-35
2023/09/21 04:46:44;;;;;;;71.53;5.40;;;;;;;23.68;52.51;98510.72;7302741;19;129286;-34
2023/09/21 04:49:09;;;;;;;88.50;6.27;;;;;;;23.67;52.20;98504.63;7304675;19;129482;-36
2023/09/21 04:51:34;;;;;;;80.77;5.63;;;;;;;23.66;52.52;98508.25;7302755;19;129212;-35
2023/09/21 04:54:00;;;;;;;55.23;4.23;;;;;;;23.68;52.21;98511.53;7306701;19;130793;-36
2023/09/21 04:56:26;;;;;;;102.70;7.13;;;;;;;23.52;52.12;98485.44;7308589;19;129888;-39
2023/09/21 04:58:55;;;;;;;96.47;6.37;;;;;;;23.67;52.59;98501.22;7308676;19;129768;-36
2023/09/21 05:01:27;;;;;;;102.40;7.00;;;;;;;23.65;51.99;98509.25;7306891;19;131030;-36
2023/09/21 05:03:52;;;;;;;102.25;7.28;;;;;;;23.51;52.66;98475.94;7307063;19;131516;-35
2023/09/21 05:06:18;;;;;;;63.73;4.67;;;;;;;23.63;52.69;98498.13;7308193;19;129717;-39
2023/09/21 05:08:44;;;;;;;71.85;5.18;;;;;;;23.64;52.93;98512.88;7303028;19;132044;-34
2023/09/21 05:11:10;;;;;;;110.10;7.07;;;;;;;23.49;52.84;98480.53;7304272;19;129787;-38
2023/09/21 05:13:36;;;;;;;51.07;3.80;;;;;;;23.64;52.77;98520.75;7301631;19;132328;-37
2023/09/21 05:16:03;;;;;;;80.00;5.40;;;;;;;23.63;53.60;98513.88;7306539;19;129132;-37
2023/09/21 05:18:29;;;;;;;85.72;5.53;;;;;;;23.62;53.62;98517.47;7303407;19;130013;-35
2023/09/21 05:20:54;;;;;;;95.13;6.13;;;;;;;23.65;53.88;98511.06;7303645;19;130070;-35
2023/09/21 05:23:19;;;;;;;91.77;6.00;;;;;;;23.63;53.37;98503.38;7308720;19;129644;-34
2023/09/21 05:25:45;;;;;;;185.67;12.27;;;;;;;23.66;53.39;98508.25;7303428;19;129203;-41
2023/09/21 05:28:10;;;;;;;68.93;4.77;;;;;;;23.62;54.07;98509.59;7305062;19;129421;-36
2023/09/21 05:30:35;;;;;;;82.07;5.63;;;;;;;23.63;53.72;98503.38;7304583;19;129887;-35
2023/09/21 05:33:01;;;;;;;67.77;4.60;;;;;;;23.52;54.00;98489.88;7287740;19;131125;-36
2023/09/21 05:35:27;;;;;;;82.80;5.67;;;;;;;23.57;54.08;98490.97;7306383;19;129628;-36
2023/09/21 05:37:53;;;;;;;98.65;6.70;;;;;;;23.64;53.95;98515.50;7304614;19;130070;-33
2023/09/21 05:40:19;;;;;;;102.17;6.67;;;;;;;23.62;54.54;98493.84;7304010;19;130785;-35
2023/09/21 05:42:45;;;;;;;114.23;7.13;;;;;;;23.64;54.38;98499.75;7306845;19;130315;-36
2023/09/21 05:45:10;;;;;;;231.20;14.60;;;;;;;23.63;54.42;98495.50;7305271;19;132703;-34
2023/09/21 05:47:37;;;;;;;57.80;4.07;;;;;;;23.63;54.29;98485.00;7310028;19;128964;-36
2023/09/21 05:50:05;;;;;;;70.70;5.05;;;;;;;23.60;54.26;98482.72;7307898;19;131351;-34
2023/09/21 05:52:32;;;;;;;89.82;6.03;;;;;;;23.59;53.88;98475.84;7301119;19;130468;-38
2023/09/21 05:54:57;;;;;;;93.60;5.88;;;;;;;23.63;54.83;98474.50;7305831;19;129151;-33
2023/09/21 05:57:23;;;;;;;75.30;4.90;;;;;;;23.62;54.36;98474.69;7306513;19;129183;-33
2023/09/21 05:59:50;;;;;;;96.10;6.63;;;;;;;23.65;54.99;98480.38;7304741;19;129527;-35
2023/09/21 06:02:15;;;;;;;;;;;;;;;23.71;55.92;98478.84;7301711;19;130396;-35
2023/09/21 06:04:41;;;;;;;104.60;7.17;;;;;;;23.70;54.94;98478.03;7301184;19;130726;-39
2023/09/21 06:07:07;;;;;;;107.18;7.35;;;;;;;23.60;54.50;98455.69;7304652;19;129464;-37
2023/09/21 06:09:33;;;;;;;50.53;4.00;;;;;;;23.69;55.03;98465.91;7307930;19;129367;-35
2023/09/21 06:11:59;;;;;;;65.33;5.20;;;;;;;23.67;54.57;98473.16;7304055;19;129505;-35
2023/09/21 06:14:25;;;;;;;67.27;4.73;;;;;;;23.67;55.05;98478.38;7306587;19;130966;-35
2023/09/21 06:16:51;;;;;;;84.60;5.87;;;;;;;23.64;54.93;98477.94;7307648;19;131285;-37
2023/09/21 06:19:18;;;;;;;83.65;5.47;;;;;;;23.67;54.40;98480.22;7303465;19;130082;-36
2023/09/21 06:21:45;;;;;;;60.13;4.72;;;;;;;23.67;55.26;98482.84;7305003;19;131367;-34
2023/09/21 06:24:11;;;;;;;82.95;5.57;;;;;;;23.67;54.54;98475.78;7307724;19;128943;-33
2023/09/21 06:26:36;;;;;;;59.17;4.37;;;;;;;23.67;54.96;98472.34;7307978;19;130806;-34
2023/09/21 06:29:03;;;;;;;73.97;5.23;;;;;;;23.66;55.36;98470.69;7306229;19;129546;-34
2023/09/21 06:31:28;;;;;;;;;;;;;;;23.69;55.76;98472.97;7303209;19;130947;-32
2023/09/21 06:33:58;;;;;;;74.60;5.30;;;;;;;23.65;55.00;98475.13;7304643;19;129314;-36
2023/09/21 06:36:33;;;;;;;112.80;7.45;;;;;;;23.63;55.19;98476.31;7306700;19;130061;-35
2023/09/21 06:38:58;;;;;;;74.25;5.50;;;;;;;23.68;55.49;98469.53;7305125;19;129353;-36
2023/09/21 06:41:28;;;;;;;55.73;4.33;;;;;;;23.67;55.55;98474.97;7305054;19;129110;-35
2023/09/21 06:43:54;;;;;;;89.15;6.22;;;;;;;23.67;54.65;98472.34;7303424;19;130493;-38
2023/09/21 06:46:19;;;;;;;33.50;3.03;;;;;;;23.63;55.33;98465.81;7308449;19;129472;-36
2023/09/21 06:48:45;;;;;;;47.07;3.90;;;;;;;23.64;55.00;98460.38;7306231;19;129077;-36
2023/09/21 06:51:11;;;;;;;79.95;5.68;;;;;;;23.66;55.69;98466.28;7306213;19;130551;-36
2023/09/21 06:53:36;;;;;;;75.33;5.27;;;;;;;23.64;55.63;98462.19;7304933;19;131064;-36
2023/09/21 06:56:03;;;;;;;76.97;5.40;;;;;;;23.65;54.79;98463.84;7305839;19;129358;-35
2023/09/21 06:58:30;;;;;;;82.82;5.57;;;;;;;23.68;55.22;98464.28;7305699;19;130548;-36
2023/09/21 07:00:59;;;;;;;76.72;5.38;;;;;;;23.62;55.90;98444.00;7304600;19;129244;-34
2023/09/21 07:03:25;;;;;;;58.10;4.28;;;;;;;23.68;55.27;98464.28;7304995;19;129591;-35
2023/09/21 07:05:50;;;;;;;100.80;6.83;;;;;;;23.66;55.83;98450.53;7301799;19;129829;-34
2023/09/21 07:08:17;;;;;;;63.70;5.20;;;;;;;23.69;55.16;98465.09;7305222;19;129375;-33
2023/09/21 07:10:43;;;;;;;61.55;4.60;;;;;;;23.69;56.07;98460.66;7305319;19;129847;-35
2023/09/21 07:13:12;;;;;;;80.28;5.53;;;;;;;23.68;55.84;98453.78;7302632;19;129719;-36
2023/09/21 07:15:40;;;;;;;57.80;4.40;;;;;;;23.66;55.95;98455.78;7305905;19;129485;-32
2023/09/21 07:18:06;;;;;;;86.90;6.18;;;;;;;23.67;55.61;98462.66;7302657;19;129469;-36
2023/09/21 07:20:32;;;;;;;69.93;4.93;;;;;;;23.68;56.34;98456.41;7302284;19;130292;-36
2023/09/21 07:22:58;;;;;;;85.25;6.03;;;;;;;23.65;56.15;98454.13;7304599;19;128856;-36
2023/09/21 07:25:28;;;;;;;97.57;6.50;;;;;;;23.62;56.45;98449.25;7303662;19;130837;-36
2023/09/21 07:27:54;;;;;;;102.35;6.97;;;;;;;23.66;55.88;98453.16;7299481;19;130551;-38
2023/09/21 07:30:26;;;;;;;69.77;4.93;;;;;;;23.65;56.10;98448.88;7301279;19;129444;-34
2023/09/21 07:32:55;;;;;;;101.40;7.05;;;;;;;23.55;55.65;98432.59;7300974;19;129782;-33
2023/09/21 07:35:21;;;;;;;72.72;5.00;;;;;;;23.68;55.80;98445.94;7305728;19;129316;-33
2023/09/21 07:37:50;;;;;;;55.17;4.15;;;;;;;23.66;56.25;98442.66;7303229;19;130892;-36
2023/09/21 07:40:16;;;;;;;69.80;5.10;;;;;;;23.68;56.49;98438.06;7303425;19;132094;-37
2023/09/21 07:42:48;;;;;;;73.55;5.63;;;;;;;23.66;56.67;98444.47;7305248;19;129580;-36
2023/09/21 07:45:15;;;;;;;78.30;5.32;;;;;;;23.65;56.45;98430.50;7305521;19;129154;-37
2023/09/21 07:47:40;;;;;;;73.95;5.43;;;;;;;23.67;55.83;98435.63;7302965;19;130482;-35
2023/09/21 07:50:07;;;;;;;85.50;5.93;;;;;;;23.67;55.45;98438.22;7305251;19;129166;-35
2023/09/21 07:52:33;;;;;;;58.53;4.70;;;;;;;23.66;55.83;98424.28;7303371;19;129085;-34
2023/09/21 07:54:59;;;;;;;84.45;5.93;;;;;;;23.68;56.12;98427.56;7304670;19;129034;-35
2023/09/21 07:57:25;;;;;;;206.43;13.97;;;;;;;23.69;56.10;98410.81;7299683;19;129222;-39
2023/09/21 07:59:50;;;;;;;106.23;7.73;;;;;;;23.59;55.85;98396.31;7302195;19;131646;-36
2023/09/21 08:02:18;;;;;;;59.00;4.63;;;;;;;23.58;56.17;98392.91;7302673;19;130298;-39
2023/09/21 08:04:44;;;;;;;76.97;5.32;;;;;;;23.70;56.35;98409.78;7304609;19;130411;-34
2023/09/21 08:07:09;;;;;;;63.67;5.00;;;;;;;23.69;56.49;98402.94;7302039;19;131033;-34
2023/09/21 08:09:35;;;;;;;57.63;4.57;;;;;;;23.67;55.74;98407.53;7304304;19;130403;-33
2023/09/21 08:12:00;;;;;;;85.83;6.57;;;;;;;23.69;55.56;98405.56;7299235;19;129256;-37
2023/09/21 08:14:26;;;;;;;66.70;5.70;;;;;;;23.67;55.97;98404.13;7312735;19;129616;-34
2023/09/21 08:16:53;;;;;;;89.10;6.23;;;;;;;23.66;56.04;98403.31;7306687;19;130312;-36
2023/09/21 08:19:19;;;;;;;73.00;5.28;;;;;;;23.65;55.57;98406.91;7311203;19;129280;-35
2023/09/21 08:21:44;;;;;;;73.80;5.63;;;;;;;23.65;56.07;98398.25;7305616;19;129147;-35
2023/09/21 08:24:10;;;;;;;66.60;5.07;;;;;;;23.70;55.77;98404.53;7311212;19;130306;-35
2023/09/21 08:26:37;;;;;;;76.53;5.50;;;;;;;23.68;56.29;98411.00;7307139;19;130301;-39
2023/09/21 08:29:02;;;;;;;104.15;7.63;;;;;;;23.67;56.36;98410.16;7310789;19;131032;-35
2023/09/21 08:31:28;;;;;;;42.67;3.90;;;;;;;23.62;55.85;98395.97;7307127;19;130035;-35
2023/09/21 08:33:53;;;;;;;77.40;6.60;;;;;;;23.66;56.11;98400.69;7308000;19;128994;-38
2023/09/21 08:36:19;;;;;;;54.83;4.70;;;;;;;23.69;56.19;98402.94;7310533;19;129379;-35
2023/09/21 08:38:45;;;;;;;65.27;5.73;;;;;;;23.68;55.98;98401.31;7310891;19;129628;-36
2023/09/21 08:41:11;;;;;;;76.80;5.97;;;;;;;23.69;56.13;98392.44;7307462;19;128948;-35
2023/09/21 08:43:37;;;;;;;66.73;5.77;;;;;;;23.69;55.83;98391.59;7311267;19;129391;-32
2023/09/21 08:46:03;;;;;;;83.35;6.43;;;;;;;23.69;55.73;98392.44;7307329;19;129706;-35
2023/09/21 08:48:31;;;;;;;50.17;4.80;;;;;;;23.70;56.49;98383.56;7311798;19;129207;-34
2023/09/21 08:51:00;;;;;;;58.67;5.00;;;;;;;23.63;56.53;98366.09;7306032;19;129600;-36
2023/09/21 08:53:26;;;;;;;59.65;4.97;;;;;;;23.70;55.98;98382.75;7306673;19;129491;-35
2023/09/21 08:55:57;;;;;;;83.28;6.15;;;;;;;23.69;56.55;98381.13;7308699;19;129566;-37
2023/09/21 08:58:24;;;;;;;180.18;12.82;;;;;;;23.68;55.68;98377.69;7306780;19;130623;-36
2023/09/21 09:00:55;;;;;;;70.68;5.82;;;;;;;23.68;55.84;98375.06;7306053;19;129740;-35
2023/09/21 09:03:21;;;;;;;74.68;6.20;;;;;;;23.69;55.49;98371.44;7307085;19;129278;-36
2023/09/21 09:05:47;;;;;;;92.78;7.20;;;;;;;23.60;55.85;98353.34;7305994;19;129329;-35
2023/09/21 09:08:13;;;;;;;83.53;6.38;;;;;;;23.68;55.53;98364.56;7307856;19;130162;-34
2023/09/21 09:10:42;;;;;;;61.00;5.40;;;;;;;23.70;56.25;98365.19;7307991;19;129481;-36
2023/09/21 09:13:08;;;;;;;78.30;6.35;;;;;;;23.73;56.24;98370.09;7307334;19;130253;-35
2023/09/21 09:15:35;;;;;;;55.97;4.73;;;;;;;23.72;55.79;98363.19;7310602;19;128968;-37
2023/09/21 09:18:01;;;;;;;;;;;;;;;23.71;56.45;98358.97;7309984;19;130765;-35
2023/09/21 09:20:29;;;;;;;57.65;4.88;;;;;;;23.69;55.81;98360.13;7310618;19;128825;-36
2023/09/21 09:22:54;;;;;;;69.55;5.78;;;;;;;23.69;55.90;98355.69;7310562;19;129416;-34
2023/09/21 09:25:23;;;;;;;60.97;5.30;;;;;;;23.68;56.11;98356.69;7309929;19;129881;-36
2023/09/21 09:27:49;;;;;;;73.45;5.80;;;;;;;23.73;55.98;98354.34;7307963;19;129714;-35
2023/09/21 09:30:16;;;;;;;69.47;5.87;;;;;;;23.72;55.25;98341.38;7307942;19;129082;-35
2023/09/21 09:32:42;;;;;;;54.05;4.70;;;;;;;23.72;55.98;98346.63;7307016;19;130377;-34
2023/09/21 09:35:14;;;;;;;84.57;7.03;;;;;;;23.72;55.84;98346.63;7309354;19;129287;-34
2023/09/21 09:37:44;;;;;;;79.78;6.32;;;;;;;23.71;55.47;98345.00;7303210;19;129849;-35
2023/09/21 09:40:12;;;;;;;97.22;7.05;;;;;;;23.68;55.69;98338.34;7308286;19;129249;-34
2023/09/21 09:42:42;;;;;;;90.93;7.00;;;;;;;23.68;56.17;98343.59;7299615;19;130178;-35
2023/09/21 09:45:28;;;;;;;65.50;5.65;;;;;;;23.69;56.01;98345.19;7308301;19;129706;-35
2023/09/21 09:48:01;;;;;;;67.82;5.75;;;;;;;23.69;55.79;98339.94;7304937;19;130140;-34
2023/09/21 09:50:36;;;;;;;70.88;5.57;;;;;;;23.68;56.35;98338.34;7307670;19;129005;-36
2023/09/21 09:53:05;;;;;;;76.55;6.18;;;;;;;23.57;55.34;98320.41;7306292;19;130248;-34
2023/09/21 09:55:33;;;;;;;60.97;5.70;;;;;;;23.70;55.92;98341.56;7308022;19;129910;-35
2023/09/21 09:58:00;;;;;;;51.30;5.03;;;;;;;23.73;55.54;98335.97;7308903;19;131581;-40
2023/09/21 10:00:27;;;;;;;29.83;3.78;;;;;;;23.74;55.93;98329.72;7307589;19;129235;-35
2023/09/21 10:02:55;;;;;;;75.38;6.30;;;;;;;23.76;56.34;98332.16;7308285;19;129433;-34
2023/09/21 10:05:22;;;;;;;58.10;5.43;;;;;;;23.80;56.41;98330.81;7308872;19;129520;-33
2023/09/21 10:07:51;;;;;;;63.55;5.55;;;;;;;23.71;56.42;98311.72;7308723;19;129157;-35
2023/09/21 10:10:21;;;;;;;85.78;7.28;;;;;;;23.78;56.55;98333.63;7306063;19;131212;-35
2023/09/21 10:12:51;;;;;;;79.85;6.95;;;;;;;23.73;56.55;98330.72;7301646;19;129858;-35
2023/09/21 10:15:22;;;;;;;79.05;6.38;;;;;;;23.71;56.13;98322.22;7306315;19;129322;-36
2023/09/21 10:17:50;;;;;;;77.32;6.47;;;;;;;23.70;55.93;98335.53;7308763;19;130264;-32
2023/09/21 10:20:27;;;;;;;53.13;5.00;;;;;;;23.71;56.50;98318.78;7306586;19;129287;-35
2023/09/21 10:22:53;;;;;;;69.38;5.65;;;;;;;23.72;56.41;98329.06;7306827;19;129773;-36
2023/09/21 10:25:42;;;;;;;64.15;5.68;;;;;;;23.71;57.47;98324.84;7308526;19;131152;-36
2023/09/21 10:28:34;;;;;;;77.60;6.53;;;;;;;23.71;56.48;98324.03;7308170;19;129357;-36
2023/09/21 10:31:13;;;;;;;65.47;5.53;;;;;;;23.72;56.47;98313.34;7306170;19;129155;-35
2023/09/21 10:33:51;;;;;;;87.00;7.10;;;;;;;23.69;57.14;98305.84;7304609;19;129374;-35
2023/09/21 10:36:30;;;;;;;65.25;5.93;;;;;;;23.71;56.67;98306.47;7306447;19;129141;-35
2023/09/21 10:39:24;;;;;;;90.07;7.20;;;;;;;23.72;57.06;98302.00;7306007;19;130923;-37
2023/09/21 10:41:54;;;;;;;82.53;7.10;;;;;;;23.75;56.60;98301.66;7305855;19;130148;-35
2023/09/21 10:44:57;;;;;;;92.43;7.85;;;;;;;23.75;57.53;98285.94;7308457;19;129886;-37
2023/09/21 10:47:50;;;;;;;56.35;5.70;;;;;;;23.74;57.94;98282.47;7309339;19;129696;-37
2023/09/21 10:50:19;;;;;;;72.82;6.30;;;;;;;23.78;56.44;98289.00;7304548;19;130739;-35
2023/09/21 10:52:52;;;;;;;89.88;7.88;;;;;;;23.75;57.46;98281.47;7307354;19;128847;-35
2023/09/21 10:55:19;;;;;;;95.60;7.50;;;;;;;23.75;55.97;98281.47;7308224;19;130012;-36
2023/09/21 10:57:46;;;;;;;72.03;6.25;;;;;;;23.77;56.33;98281.28;7305735;19;129579;-36
2023/09/21 11:00:17;;;;;;;79.15;7.40;;;;;;;23.77;56.81;98278.66;7307606;19;132958;-34
2023/09/21 11:02:46;;;;;;;66.68;6.40;;;;;;;23.80;56.07;98279.09;7307780;19;129425;-37
2023/09/21 11:05:12;;;;;;;71.45;6.65;;;;;;;23.78;56.28;98269.81;7308147;19;129270;-35
2023/09/21 11:07:40;;;;;;;55.50;5.53;;;;;;;23.79;56.43;98274.03;7306572;19;129521;-35
2023/09/21 11:10:07;;;;;;;75.10;7.00;;;;;;;23.80;56.56;98267.81;7306058;19;129503;-36
2023/09/21 11:12:34;;;;;;;54.80;5.65;;;;;;;23.83;56.37;98272.69;7303730;19;129999;-36
2023/09/21 11:14:59;;;;;;;58.83;6.35;;;;;;;23.72;56.29;98250.34;7307634;19;129111;-34
2023/09/21 11:17:27;;;;;;;79.27;7.40;;;;;;;23.84;56.93;98259.38;7306774;19;129336;-35
2023/09/21 11:19:53;;;;;;;103.28;9.05;;;;;;;23.84;56.82;98248.06;7306182;19;130570;-33